createdAt,value
2019-05-01T00:01:32.664Z,90.20
2019-05-01T00:04:09.459Z,90.40
2019-05-01T00:06:40.217Z,90.50
2019-05-01T00:09:07.739Z,90.60
2019-05-01T00:11:33.670Z,90.60
2019-05-01T00:13:59.623Z,90.80
2019-05-01T00:16:25.679Z,90.90
2019-05-01T00:18:51.640Z,90.90
2019-05-01T00:21:17.695Z,91.00
2019-05-01T00:23:43.885Z,91.00
2019-05-01T00:26:09.895Z,91.10
2019-05-01T00:28:35.940Z,91.20
2019-05-01T00:31:03.244Z,91.30
2019-05-01T00:33:29.414Z,91.30
2019-05-01T00:35:55.469Z,91.40
2019-05-01T00:38:21.529Z,91.50
2019-05-01T00:40:47.487Z,91.50
2019-05-01T00:43:13.550Z,91.60
2019-05-01T00:45:39.493Z,91.80
2019-05-01T00:48:05.451Z,91.70
2019-05-01T00:50:31.415Z,91.70
2019-05-01T00:52:57.401Z,91.80
2019-05-01T00:55:41.776Z,91.80
2019-05-01T00:58:18.589Z,91.90
2019-05-01T01:01:03.481Z,92.00
2019-05-01T01:03:29.439Z,92.00
2019-05-01T01:05:55.422Z,92.10
2019-05-01T01:08:21.494Z,92.10
2019-05-01T01:10:47.586Z,92.10
2019-05-01T01:13:13.563Z,92.10
2019-05-01T01:15:39.898Z,92.10
2019-05-01T01:18:05.867Z,92.10
2019-05-01T01:20:31.857Z,92.50
2019-05-01T01:22:58.011Z,92.30
2019-05-01T01:25:23.968Z,92.10
2019-05-01T01:27:50.014Z,92.10
2019-05-01T01:30:16.078Z,92.10
2019-05-01T01:32:42.060Z,92.10
2019-05-01T01:35:08.213Z,92.00
2019-05-01T01:37:34.238Z,92.00
2019-05-01T01:40:00.295Z,92.00
2019-05-01T01:42:26.554Z,92.10
2019-05-01T01:47:56.217Z,92.10
2019-05-01T01:50:22.494Z,92.10
2019-05-01T01:52:48.430Z,92.10
2019-05-01T01:55:14.361Z,92.10
2019-05-01T01:57:40.353Z,92.00
2019-05-01T02:00:08.410Z,92.00
2019-05-01T02:02:39.142Z,92.00
2019-05-01T02:05:10.147Z,92.20
2019-05-01T02:07:36.581Z,92.00
2019-05-01T02:10:04.561Z,91.90
2019-05-01T02:12:30.721Z,92.00
2019-05-01T02:14:56.690Z,91.90
2019-05-01T02:17:22.672Z,92.20
2019-05-01T02:19:48.723Z,91.90
2019-05-01T02:22:14.794Z,91.90
2019-05-01T02:24:40.729Z,91.80
2019-05-01T02:27:14.680Z,91.80
2019-05-01T02:29:45.779Z,91.80
2019-05-01T02:32:13.224Z,91.80
2019-05-01T02:34:40.135Z,92.10
2019-05-01T02:37:07.773Z,91.70
2019-05-01T02:39:34.031Z,91.80
2019-05-01T02:42:00.275Z,91.80
2019-05-01T02:44:28.144Z,91.90
2019-05-01T02:46:56.080Z,91.80
2019-05-01T02:49:39.205Z,91.80
2019-05-01T02:52:07.098Z,91.90
2019-05-01T02:54:33.259Z,92.00
2019-05-01T02:57:01.702Z,92.00
2019-05-01T02:59:29.092Z,91.90
2019-05-01T03:01:55.083Z,92.00
2019-05-01T03:04:21.225Z,92.00
2019-05-01T03:06:47.463Z,91.90
2019-05-01T03:09:14.418Z,92.00
2019-05-01T03:11:41.021Z,91.90
2019-05-01T03:14:08.980Z,91.80
2019-05-01T03:16:36.052Z,91.80
2019-05-01T03:19:06.824Z,91.70
2019-05-01T03:21:34.975Z,91.70
2019-05-01T03:24:09.085Z,91.70
2019-05-01T03:26:35.231Z,91.70
2019-05-01T03:29:02.308Z,91.40
2019-05-01T03:31:28.254Z,91.70
2019-05-01T03:33:54.345Z,91.70
2019-05-01T03:36:21.653Z,91.60
2019-05-01T03:38:48.118Z,91.60
2019-05-01T03:41:14.460Z,91.50
2019-05-01T03:43:40.611Z,91.40
2019-05-01T03:46:07.188Z,91.30
2019-05-01T03:48:33.228Z,91.40
2019-05-01T03:50:59.824Z,91.40
2019-05-01T03:53:26.392Z,91.50
2019-05-01T03:55:52.442Z,91.40
2019-05-01T03:58:18.424Z,91.40
2019-05-01T04:00:48.858Z,91.40
2019-05-01T04:03:25.907Z,91.40
2019-05-01T04:05:52.382Z,91.20
2019-05-01T04:08:18.629Z,91.50
2019-05-01T04:10:45.228Z,91.20
2019-05-01T04:13:11.370Z,91.20
2019-05-01T04:15:37.650Z,91.10
2019-05-01T04:18:06.701Z,91.30
2019-05-01T04:20:33.009Z,91.30
2019-05-01T04:22:59.093Z,91.30
2019-05-01T04:25:25.190Z,91.20
2019-05-01T04:27:53.230Z,91.20
2019-05-01T04:30:27.653Z,91.70
2019-05-01T04:32:55.493Z,91.30
2019-05-01T04:35:29.812Z,91.40
2019-05-01T04:37:56.539Z,91.50
2019-05-01T04:40:22.506Z,91.30
2019-05-01T04:42:48.576Z,91.60
2019-05-01T04:45:14.526Z,91.30
2019-05-01T04:47:40.874Z,91.60
2019-05-01T04:50:07.190Z,91.50
2019-05-01T04:52:33.345Z,91.90
2019-05-01T04:54:59.331Z,91.60
2019-05-01T04:57:25.707Z,91.50
2019-05-01T04:59:51.763Z,91.20
2019-05-01T05:02:20.035Z,91.30
2019-05-01T05:04:46.320Z,91.20
2019-05-01T05:07:12.330Z,91.10
2019-05-01T05:09:40.202Z,91.20
2019-05-01T05:12:08.863Z,91.20
2019-05-01T05:14:36.762Z,91.20
2019-05-01T05:17:04.723Z,91.00
2019-05-01T05:19:30.988Z,91.00
2019-05-01T05:21:57.134Z,91.00
2019-05-01T05:24:23.468Z,91.00
2019-05-01T05:26:49.493Z,90.90
2019-05-01T05:29:17.366Z,90.80
2019-05-01T05:31:43.734Z,90.70
2019-05-01T05:34:10.443Z,90.60
2019-05-01T05:36:36.762Z,90.60
2019-05-01T05:39:06.050Z,90.60
2019-05-01T05:41:32.395Z,90.60
2019-05-01T05:43:58.360Z,90.30
2019-05-01T05:46:24.661Z,90.30
2019-05-01T05:48:50.755Z,90.00
2019-05-01T05:51:35.819Z,90.00
2019-05-01T05:54:06.687Z,89.80
2019-05-01T05:56:39.269Z,89.50
2019-05-01T05:59:10.859Z,90.10
2019-05-01T06:01:43.230Z,89.20
2019-05-01T06:04:24.927Z,88.60
2019-05-01T06:06:54.419Z,88.20
2019-05-01T06:09:23.401Z,87.60
2019-05-01T06:12:15.560Z,86.90
2019-05-01T06:14:53.349Z,86.70
2019-05-01T06:17:33.387Z,85.00
2019-05-01T06:22:59.461Z,84.60
2019-05-01T06:25:28.351Z,83.80
2019-05-01T06:27:54.551Z,83.20
2019-05-01T06:30:20.754Z,80.70
2019-05-01T06:32:46.884Z,80.90
2019-05-01T06:35:12.955Z,79.70
2019-05-01T06:37:55.973Z,80.10
2019-05-01T06:40:25.723Z,80.00
2019-05-01T06:42:51.674Z,78.90
2019-05-01T06:45:19.546Z,78.70
2019-05-01T06:47:56.391Z,78.80
2019-05-01T06:50:27.378Z,78.50
2019-05-01T06:52:53.827Z,77.70
2019-05-01T06:55:22.632Z,78.00
2019-05-01T06:57:48.358Z,78.20
2019-05-01T07:00:16.226Z,78.10
2019-05-01T07:02:42.735Z,76.00
2019-05-01T07:05:14.441Z,76.30
2019-05-01T07:07:37.626Z,75.50
2019-05-01T07:10:04.691Z,76.40
2019-05-01T07:12:31.192Z,76.80
2019-05-01T07:14:57.962Z,76.80
2019-05-01T07:17:24.030Z,77.90
2019-05-01T07:19:51.927Z,75.70
2019-05-01T07:22:18.403Z,75.60
2019-05-01T07:24:44.477Z,75.10
2019-05-01T07:27:10.436Z,75.40
2019-05-01T07:29:39.841Z,75.30
2019-05-01T07:32:07.495Z,75.50
2019-05-01T07:34:33.651Z,75.80
2019-05-01T07:37:00.227Z,74.90
2019-05-01T07:39:26.250Z,74.20
2019-05-01T07:41:54.274Z,73.60
2019-05-01T07:44:39.096Z,73.10
2019-05-01T07:47:09.924Z,73.60
2019-05-01T07:49:54.603Z,74.40
2019-05-01T07:52:20.979Z,74.10
2019-05-01T07:54:47.372Z,74.20
2019-05-01T07:57:14.913Z,73.70
2019-05-01T07:59:41.017Z,72.70
2019-05-01T08:02:08.841Z,73.00
2019-05-01T08:04:36.416Z,72.60
2019-05-01T08:07:02.799Z,73.00
2019-05-01T08:09:28.951Z,72.70
2019-05-01T08:11:54.919Z,71.60
2019-05-01T08:14:20.894Z,72.00
2019-05-01T08:16:46.951Z,72.30
2019-05-01T08:19:17.780Z,71.70
2019-05-01T08:21:51.278Z,71.80
2019-05-01T08:24:18.007Z,70.80
2019-05-01T08:26:45.985Z,70.20
2019-05-01T08:29:26.103Z,70.10
2019-05-01T08:32:11.970Z,68.70
2019-05-01T08:34:48.764Z,69.30
2019-05-01T08:37:06.867Z,68.60
2019-05-01T08:39:32.864Z,69.30
2019-05-01T08:42:03.010Z,69.90
2019-05-01T08:44:29.679Z,70.20
2019-05-01T08:46:58.330Z,70.60
2019-05-01T08:49:26.185Z,70.60
2019-05-01T08:51:52.327Z,70.00
2019-05-01T08:54:18.296Z,70.50
2019-05-01T08:56:44.362Z,70.40
2019-05-01T08:59:10.654Z,70.30
2019-05-01T09:01:36.840Z,70.30
2019-05-01T09:04:12.792Z,70.90
2019-05-01T09:06:34.801Z,69.90
2019-05-01T09:09:03.083Z,69.80
2019-05-01T09:11:26.800Z,69.30
2019-05-01T09:13:54.590Z,69.10
2019-05-01T09:16:23.378Z,67.90
2019-05-01T09:18:48.458Z,67.20
2019-05-01T09:21:14.423Z,67.60
2019-05-01T09:23:40.392Z,66.80
2019-05-01T09:26:14.717Z,68.70
2019-05-01T09:28:39.712Z,68.20
2019-05-01T09:31:08.050Z,69.00
2019-05-01T09:33:33.991Z,69.40
2019-05-01T09:35:59.949Z,68.20
2019-05-01T09:38:25.878Z,69.00
2019-05-01T09:40:51.896Z,68.00
2019-05-01T09:43:18.046Z,67.20
2019-05-01T09:45:44.006Z,67.40
2019-05-01T09:48:09.979Z,67.10
2019-05-01T09:50:38.024Z,66.50
2019-05-01T09:53:08.871Z,66.10
2019-05-01T09:55:42.798Z,66.70
2019-05-01T09:58:08.864Z,67.00
2019-05-01T10:00:34.834Z,67.20
2019-05-01T10:03:00.777Z,67.70
2019-05-01T10:05:29.110Z,67.90
2019-05-01T10:07:54.772Z,68.30
2019-05-01T10:10:24.836Z,69.20
2019-05-01T10:12:48.642Z,68.80
2019-05-01T10:15:14.811Z,68.30
2019-05-01T10:17:40.786Z,69.00
2019-05-01T10:20:07.106Z,68.00
2019-05-01T10:22:37.530Z,67.80
2019-05-01T10:25:03.796Z,68.20
2019-05-01T10:27:35.775Z,67.70
2019-05-01T10:30:19.198Z,68.80
2019-05-01T10:32:57.626Z,67.30
2019-05-01T10:35:25.482Z,65.20
2019-05-01T10:37:51.442Z,62.70
2019-05-01T10:40:17.495Z,62.70
2019-05-01T10:42:43.497Z,62.90
2019-05-01T10:45:09.613Z,61.60
2019-05-01T10:47:35.682Z,62.10
2019-05-01T10:50:01.662Z,63.00
2019-05-01T10:52:27.707Z,64.40
2019-05-01T10:54:53.648Z,65.50
2019-05-01T10:57:19.642Z,64.60
2019-05-01T10:59:45.613Z,63.70
2019-05-01T11:02:13.513Z,63.50
2019-05-01T11:04:39.510Z,63.20
2019-05-01T11:07:05.473Z,62.40
2019-05-01T11:09:31.537Z,64.00
2019-05-01T11:11:57.454Z,63.60
2019-05-01T11:14:23.444Z,62.70
2019-05-01T11:16:49.391Z,62.70
2019-05-01T11:19:15.335Z,61.50
2019-05-01T11:21:41.407Z,61.90
2019-05-01T11:24:07.403Z,59.90
2019-05-01T11:26:33.473Z,58.30
2019-05-01T11:28:59.449Z,57.50
2019-05-01T11:31:27.346Z,58.10
2019-05-01T11:33:57.969Z,58.20
2019-05-01T11:36:29.310Z,56.90
2019-05-01T11:38:57.200Z,55.10
2019-05-01T11:41:25.158Z,55.80
2019-05-01T11:43:51.223Z,54.60
2019-05-01T11:46:17.391Z,53.70
2019-05-01T11:48:44.644Z,55.00
2019-05-01T11:51:10.858Z,56.60
2019-05-01T11:53:36.804Z,58.10
2019-05-01T11:56:22.663Z,57.40
2019-05-01T11:58:48.623Z,57.50
2019-05-01T12:01:16.498Z,58.70
2019-05-01T12:03:42.502Z,59.70
2019-05-01T12:06:08.430Z,58.70
2019-05-01T12:08:34.470Z,59.30
2019-05-01T12:11:01.460Z,58.90
2019-05-01T12:13:27.529Z,59.40
2019-05-01T12:15:55.480Z,59.60
2019-05-01T12:18:21.466Z,59.00
2019-05-01T12:20:47.520Z,58.60
2019-05-01T12:23:13.578Z,58.50
2019-05-01T12:25:39.541Z,57.30
2019-05-01T12:28:05.554Z,58.30
2019-05-01T12:30:31.509Z,59.80
2019-05-01T12:32:57.569Z,60.50
2019-05-01T12:35:23.546Z,58.90
2019-05-01T12:37:50.310Z,59.10
2019-05-01T12:40:18.162Z,57.40
2019-05-01T12:42:44.221Z,56.80
2019-05-01T12:45:10.678Z,55.30
2019-05-01T12:47:39.175Z,56.10
2019-05-01T12:50:07.122Z,56.40
2019-05-01T12:55:24.423Z,55.10
2019-05-01T12:57:50.391Z,54.20
2019-05-01T13:00:18.475Z,55.10
2019-05-01T13:02:44.458Z,57.60
2019-05-01T13:05:10.418Z,58.00
2019-05-01T13:07:36.571Z,58.40
2019-05-01T13:10:03.679Z,58.10
2019-05-01T13:12:29.714Z,56.90
2019-05-01T13:15:15.588Z,56.00
2019-05-01T13:17:41.671Z,54.00
2019-05-01T13:20:07.766Z,54.10
2019-05-01T13:22:34.411Z,54.40
2019-05-01T13:25:00.364Z,55.60
2019-05-01T13:27:44.857Z,55.90
2019-05-01T13:30:22.341Z,57.90
2019-05-01T13:32:53.143Z,58.70
2019-05-01T13:35:19.113Z,58.70
2019-05-01T13:37:45.155Z,59.10
2019-05-01T13:40:11.921Z,58.00
2019-05-01T13:42:37.891Z,57.50
2019-05-01T13:45:04.657Z,56.00
2019-05-01T13:47:30.643Z,53.80
2019-05-01T13:49:56.606Z,53.10
2019-05-01T13:52:22.545Z,52.40
2019-05-01T13:54:48.523Z,52.10
2019-05-01T13:57:14.549Z,50.80
2019-05-01T13:59:40.545Z,51.60
2019-05-01T14:02:06.554Z,52.10
2019-05-01T14:04:33.058Z,51.30
2019-05-01T14:06:59.804Z,51.70
2019-05-01T14:09:27.849Z,53.40
2019-05-01T14:11:53.809Z,55.00
2019-05-01T14:14:19.761Z,55.70
2019-05-01T14:16:45.723Z,57.30
2019-05-01T14:19:11.687Z,58.50
2019-05-01T14:21:39.546Z,57.70
2019-05-01T14:24:13.071Z,57.20
2019-05-01T14:26:39.006Z,58.70
2019-05-01T14:29:04.978Z,59.60
2019-05-01T14:31:30.929Z,60.20
2019-05-01T14:33:56.890Z,59.80
2019-05-01T14:36:22.823Z,59.80
2019-05-01T14:38:48.785Z,60.30
2019-05-01T14:41:14.750Z,60.80
2019-05-01T14:43:40.717Z,61.30
2019-05-01T14:46:06.839Z,60.60
2019-05-01T14:48:32.775Z,61.00
2019-05-01T14:50:58.745Z,60.80
2019-05-01T14:53:24.790Z,61.60
2019-05-01T14:55:50.765Z,61.30
2019-05-01T14:58:16.839Z,59.90
2019-05-01T15:00:42.866Z,58.10
2019-05-01T15:03:08.820Z,57.60
2019-05-01T15:05:34.786Z,57.90
2019-05-01T15:08:00.731Z,57.80
2019-05-01T15:10:26.756Z,57.90
2019-05-01T15:12:54.622Z,58.00
2019-05-01T15:15:25.503Z,56.50
2019-05-01T15:17:59.302Z,56.10
2019-05-01T15:20:25.458Z,56.50
2019-05-01T15:22:51.430Z,56.80
2019-05-01T15:25:17.444Z,56.70
2019-05-01T15:27:43.883Z,55.90
2019-05-01T15:30:11.750Z,56.60
2019-05-01T15:32:37.719Z,58.20
2019-05-01T15:35:04.617Z,58.70
2019-05-01T15:37:31.914Z,58.10
2019-05-01T15:39:59.866Z,56.40
2019-05-01T15:42:36.925Z,56.40
2019-05-01T15:45:22.757Z,56.10
2019-05-01T15:47:48.735Z,56.50
2019-05-01T15:50:14.788Z,58.20
2019-05-01T15:52:40.756Z,58.80
2019-05-01T15:55:06.917Z,58.90
2019-05-01T15:57:32.858Z,59.00
2019-05-01T15:59:58.822Z,59.40
2019-05-01T16:02:24.790Z,59.90
2019-05-01T16:04:50.773Z,59.20
2019-05-01T16:07:16.739Z,59.20
2019-05-01T16:09:42.886Z,59.40
2019-05-01T16:12:13.786Z,59.20
2019-05-01T16:14:39.743Z,59.60
2019-05-01T16:17:05.716Z,61.90
2019-05-01T16:19:31.677Z,63.60
2019-05-01T16:21:57.762Z,64.40
2019-05-01T16:24:23.722Z,64.30
2019-05-01T16:26:49.703Z,64.90
2019-05-01T16:29:15.670Z,64.00
2019-05-01T16:31:41.689Z,63.80
2019-05-01T17:45:55.860Z,64.90
2019-05-01T17:54:10.832Z,63.30
2019-05-01T17:56:37.016Z,63.80
2019-05-01T17:59:03.316Z,66.10
2019-05-01T18:01:47.674Z,68.30
2019-05-01T18:04:32.120Z,70.50
2019-05-01T18:06:58.942Z,72.40
2019-05-01T18:09:25.018Z,73.40
2019-05-01T18:11:52.308Z,74.50
2019-05-01T18:14:19.400Z,75.90
2019-05-01T18:16:45.578Z,76.40
2019-05-01T18:19:11.779Z,76.40
2019-05-01T18:21:38.548Z,77.00
2019-05-01T18:24:23.234Z,77.70
2019-05-01T18:27:08.152Z,77.90
2019-05-01T18:29:40.093Z,78.70
2019-05-01T18:32:08.358Z,79.20
2019-05-01T18:34:38.284Z,79.20
2019-05-01T18:37:04.313Z,79.10
2019-05-01T18:39:32.394Z,79.90
2019-05-01T18:42:15.121Z,80.40
2019-05-01T18:44:42.603Z,81.10
2019-05-01T18:47:09.445Z,81.80
2019-05-01T18:49:35.548Z,82.40
2019-05-01T18:52:01.903Z,82.70
2019-05-01T18:54:30.383Z,83.00
2019-05-01T18:56:56.241Z,83.30
2019-05-01T18:59:22.368Z,83.40
2019-05-01T19:01:49.720Z,83.30
2019-05-01T19:04:18.396Z,83.90
2019-05-01T19:06:45.072Z,84.10
2019-05-01T19:09:15.059Z,84.50
2019-05-01T19:11:39.310Z,84.60
2019-05-01T19:14:05.715Z,84.90
2019-05-01T19:16:51.801Z,85.30
2019-05-01T19:19:18.431Z,85.70
2019-05-01T19:21:46.413Z,86.10
2019-05-01T19:24:13.726Z,86.30
2019-05-01T19:26:42.558Z,86.60
2019-05-01T19:29:07.947Z,87.00
2019-05-01T19:31:34.147Z,87.20
2019-05-01T19:34:00.304Z,87.50
2019-05-01T19:36:26.482Z,87.90
2019-05-01T19:38:52.673Z,88.00
2019-05-01T19:41:19.149Z,88.10
2019-05-01T19:43:45.328Z,88.50
2019-05-01T19:46:11.515Z,88.30
2019-05-01T19:48:39.106Z,88.50
2019-05-01T19:51:05.331Z,88.60
2019-05-01T19:53:31.511Z,88.80
2019-05-01T19:55:57.754Z,89.20
2019-05-01T19:58:23.988Z,89.20
2019-05-01T20:00:52.718Z,89.30
2019-05-01T20:03:19.565Z,89.30
2019-05-01T20:05:45.814Z,89.30
2019-05-01T20:08:12.010Z,89.50
2019-05-01T20:10:41.239Z,89.80
2019-05-01T20:13:11.997Z,89.70
2019-05-01T20:15:35.365Z,90.00
2019-05-01T20:18:02.555Z,90.00
2019-05-01T20:20:28.831Z,90.00
2019-05-01T20:22:55.426Z,90.20
2019-05-01T20:25:21.721Z,90.30
2019-05-01T20:27:52.964Z,90.40
2019-05-01T20:30:16.071Z,90.40
2019-05-01T20:32:42.246Z,90.30
2019-05-01T20:35:08.347Z,90.30
2019-05-01T20:37:34.699Z,90.30
2019-05-01T20:40:10.825Z,90.30
2019-05-01T20:42:31.962Z,90.30
2019-05-01T20:45:05.573Z,90.40
2019-05-01T20:47:34.848Z,90.40
2019-05-01T20:49:54.127Z,90.30
2019-05-01T20:52:20.208Z,90.30
2019-05-01T20:54:46.295Z,90.40
2019-05-01T20:57:20.871Z,90.60
2019-05-01T20:59:48.153Z,90.70
2019-05-01T21:02:13.040Z,91.10
2019-05-01T21:04:41.111Z,90.80
2019-05-01T21:07:29.446Z,90.80
2019-05-01T21:09:57.905Z,90.80
2019-05-01T21:12:25.916Z,90.90
2019-05-01T21:14:52.050Z,91.00
2019-05-01T21:17:18.136Z,91.00
2019-05-01T21:19:44.248Z,90.90
2019-05-01T21:22:10.544Z,90.90
2019-05-01T21:24:36.648Z,90.90
2019-05-01T21:27:03.521Z,91.10
2019-05-01T21:29:29.812Z,91.00
2019-05-01T21:31:55.992Z,91.00
2019-05-01T21:34:24.292Z,91.10
2019-05-01T21:36:52.741Z,91.20
2019-05-01T21:39:20.358Z,91.20
2019-05-01T21:41:46.100Z,91.20
2019-05-01T21:44:13.113Z,91.30
2019-05-01T21:46:39.793Z,91.40
2019-05-01T21:49:05.863Z,91.50
2019-05-01T21:51:32.842Z,91.50
2019-05-01T21:53:59.277Z,91.50
2019-05-01T21:56:25.799Z,91.50
2019-05-01T21:58:51.942Z,91.50
2019-05-01T22:01:18.109Z,91.40
2019-05-01T22:03:44.223Z,91.30
2019-05-01T22:06:11.234Z,91.30
2019-05-01T22:08:39.009Z,91.40
2019-05-01T22:11:06.730Z,91.60
2019-05-01T22:13:32.802Z,91.60
2019-05-01T22:16:00.882Z,91.70
2019-05-01T22:18:37.856Z,91.90
2019-05-01T22:21:18.581Z,91.90
2019-05-01T22:24:03.154Z,92.20
2019-05-01T22:26:34.024Z,91.90
2019-05-01T22:29:02.090Z,91.90
2019-05-01T22:31:30.073Z,91.90
2019-05-01T22:34:04.119Z,92.00
2019-05-01T22:36:30.208Z,92.00
2019-05-01T22:38:56.291Z,91.90
2019-05-01T22:41:22.739Z,92.00
2019-05-01T22:43:48.882Z,92.00
2019-05-01T22:46:16.962Z,92.10
2019-05-01T22:48:43.062Z,92.10
2019-05-01T22:51:11.144Z,92.10
2019-05-01T22:53:37.236Z,92.10
2019-05-01T22:56:04.126Z,92.10
2019-05-01T22:58:30.321Z,92.10
2019-05-01T23:00:58.562Z,92.20
2019-05-01T23:03:41.180Z,92.30
2019-05-01T23:06:07.895Z,92.30
2019-05-01T23:08:34.406Z,92.30
2019-05-01T23:11:01.131Z,92.40
2019-05-01T23:13:27.225Z,92.40
2019-05-01T23:15:56.250Z,92.50
2019-05-01T23:18:21.510Z,92.60
2019-05-01T23:20:47.623Z,92.70
2019-05-01T23:23:13.709Z,92.80
2019-05-01T23:25:41.203Z,92.80
2019-05-01T23:28:07.871Z,93.00
2019-05-01T23:30:34.478Z,92.90
2019-05-01T23:33:00.631Z,92.90
2019-05-01T23:35:26.734Z,92.90
2019-05-01T23:37:52.922Z,92.90
2019-05-01T23:40:18.995Z,93.10
2019-05-01T23:42:52.320Z,93.20
2019-05-01T23:45:13.174Z,93.30
2019-05-01T23:47:39.279Z,93.40
2019-05-01T23:50:06.156Z,93.50
2019-05-01T23:52:33.976Z,93.50
2019-05-01T23:55:00.257Z,93.50
2019-05-01T23:57:26.455Z,93.60
2019-05-01T23:59:52.635Z,93.80
